Time;durP1;ratioP1;P1;durP2;ratioP2;P2;SDS_P1;SDS_P2;PMS_P1;PMS_P2;Temp;Humidity;BMP_temperature;BMP_pressure;BME280_temperature;BME280_humidity;BME280_pressure;Samples;Min_cycle;Max_cycle;Signal;HPM_P1;HPM_P2
2023/09/02 00:00:05;;;;;;;2;1.8;;;;;;;15.63;93.74512;940.2439;;;;
2023/09/02 00:02:31;;;;;;;3;1.9;;;;;;;15.59;93.87402;940.3474;;;;
2023/09/02 00:04:56;;;;;;;4.2;1.7;;;;;;;15.56;94.23926;940.3809;;;;
2023/09/02 00:07:25;;;;;;;2;1.8;;;;;;;15.65;93.49609;940.3546;;;;
2023/09/02 00:09:54;;;;;;;1.9;1.7;;;;;;;15.71;93.02246;940.3525;;;;
2023/09/02 00:12:19;;;;;;;2.7;1.7;;;;;;;15.6;94.29297;940.3778;;;;
2023/09/02 00:14:45;;;;;;;3.2;1.7;;;;;;;15.72;93.47559;940.3813;;;;
2023/09/02 00:17:10;;;;;;;2.5;1.7;;;;;;;15.77;92.03125;940.3937;;;;
2023/09/02 00:19:37;;;;;;;3;2;;;;;;;15.83;91.82422;940.3688;;;;
2023/09/02 00:22:01;;;;;;;2.5;1.8;;;;;;;15.81;92.51172;940.416;;;;
2023/09/02 00:24:28;;;;;;;4.1;1.8;;;;;;;15.78;91.41992;940.3873;;;;
2023/09/02 00:26:53;;;;;;;2.2;1.7;;;;;;;15.74;91.70117;940.4182;;;;
2023/09/02 00:29:21;;;;;;;2.7;1.6;;;;;;;15.76;91.99219;940.3875;;;;
2023/09/02 00:31:46;;;;;;;2.2;1.7;;;;;;;15.78;91.52441;940.4018;;;;
2023/09/02 00:34:12;;;;;;;3.4;2;;;;;;;15.81;90.83789;940.4521;;;;
2023/09/02 00:36:38;;;;;;;1.8;1.7;;;;;;;15.76;90.73242;940.4573;;;;
2023/09/02 00:39:05;;;;;;;3;1.8;;;;;;;15.73;91.01563;940.4374;;;;
2023/09/02 00:41:30;;;;;;;2.9;1.9;;;;;;;15.7;90.25;940.3686;;;;
2023/09/02 00:43:55;;;;;;;2.3;1.5;;;;;;;15.7;90.52734;940.3959;;;;
2023/09/02 00:46:20;;;;;;;3.7;1.9;;;;;;;15.57;92.02344;940.4852;;;;
2023/09/02 00:48:47;;;;;;;2.3;1.6;;;;;;;15.45;93.41895;940.4924;;;;
2023/09/02 00:51:12;;;;;;;3.3;1.8;;;;;;;15.49;93.0459;940.4433;;;;
2023/09/02 00:53:38;;;;;;;4.7;2.1;;;;;;;15.42;93.06738;940.4492;;;;
2023/09/02 00:56:03;;;;;;;2.7;1.9;;;;;;;15.28;93.89063;940.4601;;;;
2023/09/02 00:58:31;;;;;;;2.1;1.6;;;;;;;15.25;94.30957;940.4731;;;;
2023/09/02 01:00:57;;;;;;;2.1;1.9;;;;;;;15.25;94.0791;940.5341;;;;
2023/09/02 01:03:21;;;;;;;2.2;1.8;;;;;;;15.24;93.88281;940.5606;;;;
2023/09/02 01:05:47;;;;;;;2.5;1.9;;;;;;;15.19;94.45996;940.5862;;;;
2023/09/02 01:08:13;;;;;;;2;1.6;;;;;;;15.12;94.36328;940.573;;;;
2023/09/02 01:10:37;;;;;;;1.8;1.6;;;;;;;15;95.03027;940.5506;;;;
2023/09/02 01:13:03;;;;;;;2.8;1.7;;;;;;;15.01;95.37793;940.5795;;;;
2023/09/02 01:15:28;;;;;;;2.6;1.8;;;;;;;15.04;94.95703;940.5884;;;;
2023/09/02 01:17:55;;;;;;;1.7;1.6;;;;;;;15.02;94.65332;940.6078;;;;
2023/09/02 01:20:20;;;;;;;2.7;1.9;;;;;;;15;94.74023;940.6317;;;;
2023/09/02 01:23:57;;;;;;;2.8;1.9;;;;;;;15.01;95.18164;940.5731;;;;
2023/09/02 01:26:22;;;;;;;2;1.9;;;;;;;15.03;95.47461;940.5757;;;;
2023/09/02 01:28:49;;;;;;;2.4;1.9;;;;;;;14.96;95.80664;940.5869;;;;
2023/09/02 01:31:14;;;;;;;2.7;1.8;;;;;;;14.97;95.81836;940.6294;;;;
2023/09/02 01:33:40;;;;;;;2.1;1.9;;;;;;;15;95.37402;940.6758;;;;
2023/09/02 01:36:07;;;;;;;2;1.6;;;;;;;15.02;94.97461;940.6351;;;;
2023/09/02 01:38:32;;;;;;;1.9;1.6;;;;;;;15.02;95.30859;940.6183;;;;
2023/09/02 01:41:00;;;;;;;2.6;2;;;;;;;15;95.09766;940.6196;;;;
2023/09/02 01:43:25;;;;;;;3.2;2.1;;;;;;;14.8;96.14941;940.5856;;;;
2023/09/02 01:45:50;;;;;;;2.8;2;;;;;;;14.83;96.27051;940.6395;;;;
2023/09/02 01:48:15;;;;;;;2.2;1.8;;;;;;;14.82;96.0498;940.6114;;;;
2023/09/02 01:50:40;;;;;;;2;1.8;;;;;;;14.76;96.2334;940.6666;;;;
2023/09/02 01:53:05;;;;;;;3.3;1.7;;;;;;;14.73;96.59668;940.6724;;;;
2023/09/02 01:55:31;;;;;;;4.2;1.8;;;;;;;14.64;97.74121;940.6589;;;;
2023/09/02 01:57:56;;;;;;;4;2.1;;;;;;;14.6;98.71289;940.7213;;;;
2023/09/02 02:00:23;;;;;;;2.1;1.9;;;;;;;14.63;98.69531;940.7119;;;;
2023/09/02 02:02:49;;;;;;;2.8;1.7;;;;;;;14.62;97.91016;940.7111;;;;
2023/09/02 02:05:14;;;;;;;2.9;1.8;;;;;;;14.71;97.36523;940.6859;;;;
2023/09/02 02:07:39;;;;;;;2.7;1.7;;;;;;;14.75;97.24609;940.6394;;;;
2023/09/02 02:10:04;;;;;;;2.6;1.8;;;;;;;14.72;97.56152;940.613;;;;
2023/09/02 02:12:29;;;;;;;2.1;1.7;;;;;;;14.64;97.91406;940.5804;;;;
2023/09/02 02:14:54;;;;;;;1.7;1.6;;;;;;;14.55;98.79199;940.5762;;;;
2023/09/02 02:17:19;;;;;;;3;2.1;;;;;;;14.49;99.27344;940.5491;;;;
2023/09/02 02:19:45;;;;;;;2.9;2;;;;;;;14.52;98.73828;940.5588;;;;
2023/09/02 02:22:11;;;;;;;3.3;1.8;;;;;;;14.57;98.05859;940.5786;;;;
2023/09/02 02:24:36;;;;;;;2.4;2;;;;;;;14.49;98.05176;940.6053;;;;
2023/09/02 02:27:04;;;;;;;2.5;1.7;;;;;;;14.53;97.35938;940.5828;;;;
2023/09/02 02:29:29;;;;;;;2.5;1.9;;;;;;;14.44;97.22168;940.5933;;;;
2023/09/02 02:31:55;;;;;;;2.6;1.8;;;;;;;14.31;98.26465;940.6074;;;;
2023/09/02 02:34:20;;;;;;;2.2;1.9;;;;;;;14.36;97.85059;940.6184;;;;
2023/09/02 02:36:46;;;;;;;2.6;2;;;;;;;14.35;97.66504;940.6105;;;;
2023/09/02 02:39:11;;;;;;;2.9;1.9;;;;;;;14.26;98.41602;940.6082;;;;
2023/09/02 02:41:37;;;;;;;3.5;1.9;;;;;;;14.33;98.07324;940.6273;;;;
2023/09/02 02:44:02;;;;;;;3.6;2;;;;;;;14.3;98.05566;940.7067;;;;
2023/09/02 02:46:29;;;;;;;2.3;1.8;;;;;;;14.34;97.69727;940.6594;;;;
2023/09/02 02:48:54;;;;;;;2.1;1.6;;;;;;;14.35;97.90625;940.6433;;;;
2023/09/02 02:51:20;;;;;;;1.9;1.7;;;;;;;14.39;97.85742;940.6369;;;;
2023/09/02 02:53:45;;;;;;;2.3;1.8;;;;;;;14.35;98.01953;940.6241;;;;
2023/09/02 02:56:12;;;;;;;2.8;1.9;;;;;;;14.25;99.07031;940.6514;;;;
2023/09/02 02:58:37;;;;;;;2.4;2.1;;;;;;;14.27;98.97266;940.6386;;;;
2023/09/02 03:01:04;;;;;;;2.4;1.8;;;;;;;14.29;98.52539;940.6602;;;;
2023/09/02 03:03:27;;;;;;;2;1.8;;;;;;;14.22;98.8457;940.6459;;;;
2023/09/02 03:05:55;;;;;;;3.7;2;;;;;;;14.26;98.54297;940.5962;;;;
2023/09/02 03:08:21;;;;;;;2.2;1.8;;;;;;;14.18;99.62988;940.6423;;;;
2023/09/02 03:10:46;;;;;;;2.3;1.8;;;;;;;14.25;99.77246;940.6555;;;;
2023/09/02 03:13:11;;;;;;;2.5;1.9;;;;;;;14.23;99.00684;940.6667;;;;
2023/09/02 03:15:37;;;;;;;2.2;2;;;;;;;14.23;99.19141;940.7003;;;;
2023/09/02 03:18:02;;;;;;;5.3;2;;;;;;;14.31;98.53027;940.6827;;;;
2023/09/02 03:20:27;;;;;;;2.1;1.8;;;;;;;14.4;97.36328;940.6802;;;;
2023/09/02 03:22:52;;;;;;;3.4;2.2;;;;;;;14.38;97.09473;940.7114;;;;
2023/09/02 03:25:20;;;;;;;2.9;1.9;;;;;;;14.31;98.36914;940.6666;;;;
2023/09/02 03:27:45;;;;;;;2.6;1.8;;;;;;;14.33;97.80859;940.6778;;;;
2023/09/02 03:30:13;;;;;;;2.6;2.1;;;;;;;14.21;98.20605;940.668;;;;
2023/09/02 03:32:38;;;;;;;2.9;2;;;;;;;14.17;98.54492;940.7104;;;;
2023/09/02 03:35:07;;;;;;;2.7;1.9;;;;;;;14.21;98.24219;940.7088;;;;
2023/09/02 03:37:30;;;;;;;2.9;2;;;;;;;14.13;99.06641;940.6232;;;;
2023/09/02 03:39:55;;;;;;;2.4;2;;;;;;;14.16;99.18555;940.688;;;;
2023/09/02 03:42:20;;;;;;;2.5;2;;;;;;;14.17;98.71777;940.6432;;;;
2023/09/02 03:44:45;;;;;;;3.4;1.9;;;;;;;14.13;98.60449;940.5872;;;;
2023/09/02 03:47:11;;;;;;;2.6;2;;;;;;;14.11;98.2666;940.548;;;;
2023/09/02 03:49:36;;;;;;;2.6;1.9;;;;;;;14.1;98.17188;940.5287;;;;
2023/09/02 03:52:04;;;;;;;2.2;2;;;;;;;14.18;97.66992;940.6088;;;;
2023/09/02 03:54:29;;;;;;;2.6;2.1;;;;;;;14.26;97.03418;940.5817;;;;
2023/09/02 03:56:54;;;;;;;3.3;2.1;;;;;;;14.23;96.92285;940.6114;;;;
2023/09/02 03:59:20;;;;;;;2.9;2;;;;;;;14.18;97.01563;940.6111;;;;
2023/09/02 04:02:27;;;;;;;2.5;2.1;;;;;;;14.03;98.23633;940.5992;;;;
2023/09/02 04:04:53;;;;;;;3.5;2.4;;;;;;;14.07;97.9707;940.6488;;;;
2023/09/02 04:08:50;;;;;;;3;2.1;;;;;;;14.21;97.2041;940.5991;;;;
2023/09/02 04:11:15;;;;;;;2.6;1.9;;;;;;;14.21;97.18359;940.6664;;;;
2023/09/02 04:13:42;;;;;;;2.5;2.2;;;;;;;14.19;96.74219;940.7217;;;;
2023/09/02 04:16:10;;;;;;;2.4;2;;;;;;;14.13;97.08496;940.7249;;;;
2023/09/02 04:18:32;;;;;;;3.6;2;;;;;;;14.13;96.88867;940.765;;;;
2023/09/02 04:20:58;;;;;;;2.1;1.9;;;;;;;14.07;97.01465;940.7289;;;;
2023/09/02 04:23:23;;;;;;;3.2;2.2;;;;;;;13.99;97.3877;940.7222;;;;
2023/09/02 04:25:48;;;;;;;2.5;2.2;;;;;;;13.94;98.1377;940.707;;;;
2023/09/02 04:28:13;;;;;;;3.1;2.3;;;;;;;14.03;96.76074;940.6945;;;;
2023/09/02 04:30:40;;;;;;;3;2.5;;;;;;;14.11;96.11328;940.7161;;;;
2023/09/02 04:33:05;;;;;;;3.9;2.2;;;;;;;14.05;97.22754;940.6753;;;;
2023/09/02 04:35:32;;;;;;;3.1;2.8;;;;;;;14.05;97.51563;940.7225;;;;
2023/09/02 04:37:57;;;;;;;2.8;2.6;;;;;;;13.99;99.18359;940.6581;;;;
2023/09/02 04:40:23;;;;;;;3.5;2.1;;;;;;;14.05;98.4707;940.7938;;;;
2023/09/02 04:42:48;;;;;;;2.5;2.1;;;;;;;13.99;98.91895;940.7887;;;;
2023/09/02 04:45:15;;;;;;;2.8;2.4;;;;;;;13.97;98.86914;940.7783;;;;
2023/09/02 04:47:41;;;;;;;2.1;1.9;;;;;;;13.84;100;940.8622;;;;
2023/09/02 04:50:08;;;;;;;2.9;2.1;;;;;;;13.8;100;940.8515;;;;
2023/09/02 04:52:32;;;;;;;4.5;2.2;;;;;;;13.89;100;940.8631;;;;
2023/09/02 04:54:57;;;;;;;2.8;2.3;;;;;;;13.97;100;940.8711;;;;
2023/09/02 04:57:22;;;;;;;5.7;2.2;;;;;;;14.01;98.78516;940.9064;;;;
2023/09/02 04:59:48;;;;;;;4.5;2.4;;;;;;;13.86;98.86523;941.008;;;;
2023/09/02 05:02:13;;;;;;;3;2.5;;;;;;;13.8;99.40527;941.0067;;;;
2023/09/02 05:04:41;;;;;;;2.3;2.1;;;;;;;13.91;98.7168;941.0287;;;;
2023/09/02 05:07:07;;;;;;;2.5;2.2;;;;;;;13.93;98.32715;941.0424;;;;
2023/09/02 05:09:32;;;;;;;2.9;2;;;;;;;13.97;98.45215;941.0217;;;;
2023/09/02 05:11:57;;;;;;;3.9;2.5;;;;;;;13.94;98.0918;941.0648;;;;
2023/09/02 05:14:25;;;;;;;3.1;2.3;;;;;;;13.96;97.84277;941.0993;;;;
2023/09/02 05:16:49;;;;;;;2.9;2;;;;;;;14.04;97.35449;941.1261;;;;
2023/09/02 05:19:15;;;;;;;3.8;2.2;;;;;;;13.97;96.92383;941.1778;;;;
2023/09/02 05:21:40;;;;;;;2.7;2.2;;;;;;;13.97;96.77246;941.1914;;;;
2023/09/02 05:24:06;;;;;;;5.9;2.3;;;;;;;13.93;97.46777;941.1666;;;;
2023/09/02 05:26:31;;;;;;;2.6;2;;;;;;;13.97;97.7041;941.2363;;;;
2023/09/02 05:28:57;;;;;;;3.1;2.2;;;;;;;14.01;97.42676;941.2603;;;;
2023/09/02 05:31:22;;;;;;;4.8;2.1;;;;;;;14.02;97.56641;941.2302;;;;
2023/09/02 05:33:49;;;;;;;4.5;2.4;;;;;;;14;98.35742;941.181;;;;
2023/09/02 05:36:14;;;;;;;2.5;2.1;;;;;;;14.03;98.75195;941.2629;;;;
2023/09/02 05:38:40;;;;;;;3.8;2.7;;;;;;;14.2;99.12695;941.2174;;;;
2023/09/02 05:41:06;;;;;;;4.3;2.1;;;;;;;14.47;98.60156;941.2126;;;;
2023/09/02 05:43:32;;;;;;;2.5;2.3;;;;;;;15.28;97.55957;941.2159;;;;
2023/09/02 05:45:57;;;;;;;2.5;1.9;;;;;;;16.56;89.81152;941.238;;;;
2023/09/02 05:48:24;;;;;;;2;1.7;;;;;;;17.72;82.94629;941.2065;;;;
2023/09/02 05:50:49;;;;;;;1.9;1.6;;;;;;;18.8;77.16992;941.1399;;;;
2023/09/02 05:53:16;;;;;;;2.4;1.6;;;;;;;19.56;73.31641;941.1367;;;;
2023/09/02 05:55:41;;;;;;;3.1;1.9;;;;;;;20.03;72.18066;941.1969;;;;
2023/09/02 05:58:06;;;;;;;1.7;1.6;;;;;;;20.93;68.76074;941.1679;;;;
2023/09/02 06:00:31;;;;;;;3.1;1.6;;;;;;;20.72;67.04492;941.1908;;;;
2023/09/02 06:02:56;;;;;;;3.2;1.9;;;;;;;19.64;70.10059;941.1749;;;;
2023/09/02 06:05:22;;;;;;;1.7;1.6;;;;;;;19.8;70.94141;941.2403;;;;
2023/09/02 06:07:47;;;;;;;2.1;1.7;;;;;;;20.59;67.80859;941.218;;;;
2023/09/02 06:10:15;;;;;;;2.1;1.5;;;;;;;21.19;65.57227;941.1071;;;;
2023/09/02 06:12:40;;;;;;;2.8;1.7;;;;;;;21.59;64.44824;941.0733;;;;
2023/09/02 06:15:06;;;;;;;3.3;1.7;;;;;;;21.85;63.23242;941.103;;;;
2023/09/02 06:17:33;;;;;;;2.2;1.6;;;;;;;21.92;62.73926;941.122;;;;
2023/09/02 06:19:59;;;;;;;3.6;1.8;;;;;;;22.61;60.94629;941.1228;;;;
2023/09/02 06:22:24;;;;;;;1.7;1.6;;;;;;;22.68;60.91113;941.0972;;;;
2023/09/02 06:24:52;;;;;;;2.4;1.8;;;;;;;22.93;60.0166;941.1259;;;;
2023/09/02 06:27:17;;;;;;;2.3;1.8;;;;;;;23.31;59.8916;941.1566;;;;
2023/09/02 06:29:42;;;;;;;2.4;1.8;;;;;;;23.74;57.01953;941.2274;;;;
2023/09/02 06:32:07;;;;;;;1.9;1.5;;;;;;;24.01;56.00488;941.2217;;;;
2023/09/02 06:34:33;;;;;;;2.5;1.8;;;;;;;23.7;56.64941;941.207;;;;
2023/09/02 06:36:58;;;;;;;2.1;1.7;;;;;;;24.18;56.00293;941.1766;;;;
2023/09/02 06:39:25;;;;;;;3.6;1.6;;;;;;;24.66;53.70605;941.1594;;;;
2023/09/02 06:41:50;;;;;;;2.6;1.4;;;;;;;25.67;51.80664;941.1077;;;;
2023/09/02 06:44:18;;;;;;;3.1;1.6;;;;;;;24.96;53.80078;941.1588;;;;
2023/09/02 06:46:43;;;;;;;1.9;1.7;;;;;;;23.56;55.76074;941.1334;;;;
2023/09/02 06:49:08;;;;;;;3.3;1.9;;;;;;;23.99;55.42578;941.1686;;;;
2023/09/02 06:51:33;;;;;;;2.8;1.7;;;;;;;23.08;57.74512;941.1019;;;;
2023/09/02 06:53:59;;;;;;;2.7;1.6;;;;;;;23.47;58.39648;941.1022;;;;
2023/09/02 06:56:24;;;;;;;1.6;1.5;;;;;;;24.55;55.07129;941.1889;;;;
2023/09/02 06:58:52;;;;;;;1.4;1.3;;;;;;;23.19;57.66602;941.1426;;;;
2023/09/02 07:01:17;;;;;;;1.8;1.5;;;;;;;23.87;55.25781;941.162;;;;
2023/09/02 07:03:42;;;;;;;1.6;1.5;;;;;;;24.34;56.01172;941.105;;;;
2023/09/02 07:06:08;;;;;;;2.5;1.5;;;;;;;23.59;55.60156;941.1023;;;;
2023/09/02 07:08:35;;;;;;;1.7;1.5;;;;;;;24.55;55.99121;941.065;;;;
2023/09/02 07:11:00;;;;;;;2.6;2.1;;;;;;;25.6;51.56152;941.0844;;;;
2023/09/02 07:13:25;;;;;;;3.2;1.6;;;;;;;26.16;51.33008;941.0627;;;;
2023/09/02 07:15:50;;;;;;;1.9;1.7;;;;;;;27.24;46.97168;941.0761;;;;
2023/09/02 07:18:16;;;;;;;3.6;1.6;;;;;;;27.04;47.93457;941.0352;;;;
2023/09/02 07:20:41;;;;;;;3;1.7;;;;;;;25.67;50.31738;941.0481;;;;
2023/09/02 07:23:08;;;;;;;1.9;1.6;;;;;;;27.04;48.27832;941.0122;;;;
2023/09/02 07:25:33;;;;;;;2.3;1.4;;;;;;;27.71;46.35645;941.0184;;;;
2023/09/02 07:28:01;;;;;;;3.5;1.9;;;;;;;27.76;47.13281;941.0353;;;;
2023/09/02 07:30:26;;;;;;;2.7;1.8;;;;;;;28.26;46.85254;941.0522;;;;
2023/09/02 07:32:53;;;;;;;2.9;1.9;;;;;;;29.86;42.36719;941.0435;;;;
2023/09/02 07:35:18;;;;;;;1.8;1.7;;;;;;;30.76;42.18848;940.9775;;;;
2023/09/02 07:37:46;;;;;;;4.3;1.9;;;;;;;30.75;40.08496;940.9564;;;;
2023/09/02 07:40:11;;;;;;;2.2;2;;;;;;;32.13;37.74902;941.01;;;;
2023/09/02 07:42:36;;;;;;;2.6;1.9;;;;;;;29.63;41.06934;940.9615;;;;
2023/09/02 07:45:03;;;;;;;1.9;1.6;;;;;;;28.79;42.41016;940.981;;;;
2023/09/02 07:47:28;;;;;;;2.9;2;;;;;;;28.82;43.61426;941.0284;;;;
2023/09/02 07:49:55;;;;;;;2.5;1.5;;;;;;;29.26;44.15723;941.0574;;;;
2023/09/02 07:52:19;;;;;;;2.4;1.7;;;;;;;29.7;41.76855;941.0295;;;;
2023/09/02 07:54:46;;;;;;;2.3;1.5;;;;;;;28.9;44.0752;941.0715;;;;
2023/09/02 07:57:11;;;;;;;3.7;1.6;;;;;;;27.33;47.0166;941.0731;;;;
2023/09/02 07:59:38;;;;;;;1.9;1.7;;;;;;;26.73;50.12891;941.11;;;;
2023/09/02 08:02:03;;;;;;;2.6;1.8;;;;;;;27.14;48.97656;941.1232;;;;
2023/09/02 08:04:29;;;;;;;2.6;1.7;;;;;;;27.77;44.96191;941.123;;;;
2023/09/02 08:06:54;;;;;;;3.1;1.7;;;;;;;26.81;46.37109;941.1459;;;;
2023/09/02 08:09:21;;;;;;;1.7;1.6;;;;;;;26.62;50.98145;941.1754;;;;
2023/09/02 08:11:46;;;;;;;2.2;2;;;;;;;26.51;49.41699;941.127;;;;
2023/09/02 08:14:11;;;;;;;2.5;1.7;;;;;;;26.36;49.18848;941.0977;;;;
2023/09/02 08:16:37;;;;;;;2.2;1.9;;;;;;;25.89;47.63477;941.1438;;;;
2023/09/02 08:19:02;;;;;;;2.3;1.8;;;;;;;26.58;47.26953;941.0917;;;;
2023/09/02 08:21:27;;;;;;;2.2;1.6;;;;;;;27.6;45.65625;941.1209;;;;
2023/09/02 08:23:52;;;;;;;1.6;1.5;;;;;;;26.83;47.37988;941.1266;;;;
2023/09/02 08:26:22;;;;;;;1.7;1.5;;;;;;;26.91;48.56055;941.1189;;;;
2023/09/02 08:28:51;;;;;;;7.9;1.8;;;;;;;27.07;47.29785;941.0992;;;;
2023/09/02 08:31:15;;;;;;;2.1;1.6;;;;;;;28.53;43.38477;941.1691;;;;
2023/09/02 08:33:40;;;;;;;2.5;1.5;;;;;;;27.27;46.96387;941.1789;;;;
2023/09/02 08:36:05;;;;;;;2.4;1.6;;;;;;;28.24;44.2959;941.2402;;;;
2023/09/02 08:38:31;;;;;;;1.7;1.5;;;;;;;28.85;43.72461;941.2512;;;;
2023/09/02 08:40:57;;;;;;;2.5;1.7;;;;;;;28.09;45.64648;941.1715;;;;
2023/09/02 08:43:23;;;;;;;2.3;1.7;;;;;;;28.63;44.58398;941.1768;;;;
2023/09/02 08:45:48;;;;;;;2.1;1.9;;;;;;;28.24;45.16309;941.1805;;;;
2023/09/02 08:48:16;;;;;;;1.5;1.4;;;;;;;28.05;46.36816;941.1348;;;;
2023/09/02 08:50:41;;;;;;;2.3;1.4;;;;;;;27.09;49.51758;941.1538;;;;
2023/09/02 08:53:08;;;;;;;2.2;1.7;;;;;;;27.36;47.9209;941.1601;;;;
2023/09/02 08:55:33;;;;;;;1.8;1.4;;;;;;;27.4;47.41504;941.1835;;;;
2023/09/02 08:58:02;;;;;;;1.6;1.5;;;;;;;28.04;48.61133;941.2093;;;;
2023/09/02 09:00:27;;;;;;;2;1.8;;;;;;;27.87;49.35352;941.2137;;;;
2023/09/02 09:02:53;;;;;;;2;1.8;;;;;;;27.34;50.73145;941.2346;;;;
2023/09/02 09:05:18;;;;;;;2.1;1.9;;;;;;;26.91;51.74805;941.2219;;;;
2023/09/02 09:07:48;;;;;;;1.9;1.7;;;;;;;27.01;49.61523;941.2185;;;;
2023/09/02 09:10:12;;;;;;;2.1;1.7;;;;;;;27.17;51.67188;941.2184;;;;
2023/09/02 09:12:38;;;;;;;2.2;1.6;;;;;;;26.39;49.88965;941.2264;;;;
2023/09/02 09:15:03;;;;;;;5.2;2.1;;;;;;;25.99;53.75879;941.2784;;;;
2023/09/02 09:17:28;;;;;;;1.9;1.7;;;;;;;25.84;51.79102;941.2476;;;;
2023/09/02 09:19:55;;;;;;;2.1;1.6;;;;;;;26.32;50.75684;941.2507;;;;
2023/09/02 09:22:20;;;;;;;3;2;;;;;;;25.75;54.46289;941.2823;;;;
2023/09/02 09:24:46;;;;;;;3.6;2;;;;;;;25.92;53.91602;941.2592;;;;
2023/09/02 09:27:12;;;;;;;2.9;2.4;;;;;;;26;55.57031;941.2108;;;;
2023/09/02 09:29:37;;;;;;;3.6;2.1;;;;;;;25.6;56.11133;941.2336;;;;
2023/09/02 09:32:02;;;;;;;2.1;1.9;;;;;;;25.63;55.71289;941.191;;;;
2023/09/02 09:34:28;;;;;;;2.9;1.9;;;;;;;25.6;58.77051;941.1797;;;;
2023/09/02 09:36:53;;;;;;;3.1;1.9;;;;;;;25.42;59.09961;941.0619;;;;
2023/09/02 09:39:19;;;;;;;2.9;1.8;;;;;;;25.57;56.05957;941.1386;;;;
2023/09/02 09:41:44;;;;;;;1.9;1.8;;;;;;;25.35;57.56738;941.1397;;;;
2023/09/02 09:44:10;;;;;;;2.4;1.8;;;;;;;25.14;56.30176;941.1199;;;;
2023/09/02 09:46:37;;;;;;;2.1;1.5;;;;;;;25.07;56.49316;941.0936;;;;
2023/09/02 09:49:03;;;;;;;2;1.8;;;;;;;25.1;58.78613;941.1127;;;;
2023/09/02 09:51:31;;;;;;;1.9;1.5;;;;;;;25.24;56.18457;941.1217;;;;
2023/09/02 09:53:56;;;;;;;1.7;1.6;;;;;;;25.56;57.51172;941.0909;;;;
2023/09/02 09:56:21;;;;;;;1.8;1.6;;;;;;;25.92;56.41113;941.1208;;;;
2023/09/02 09:58:46;;;;;;;3.4;1.8;;;;;;;25.94;56.78125;941.1124;;;;
2023/09/02 10:01:12;;;;;;;2.2;1.6;;;;;;;26.1;57.22656;941.1313;;;;
2023/09/02 10:03:36;;;;;;;2.4;1.8;;;;;;;26.57;56.30371;941.0383;;;;
2023/09/02 10:06:04;;;;;;;3;1.9;;;;;;;26.38;54.10254;941.0211;;;;
2023/09/02 10:08:29;;;;;;;2.3;1.5;;;;;;;26.29;57.06152;941.0428;;;;
2023/09/02 10:10:54;;;;;;;2.2;2;;;;;;;26.25;56.14453;941.0277;;;;
2023/09/02 10:13:19;;;;;;;2.2;1.7;;;;;;;26.5;58.5332;940.9819;;;;
2023/09/02 10:15:49;;;;;;;1.8;1.7;;;;;;;27.42;51.07129;940.923;;;;
2023/09/02 10:18:13;;;;;;;1.6;1.5;;;;;;;27.85;53.22266;940.9465;;;;
2023/09/02 10:20:41;;;;;;;1.8;1.7;;;;;;;28.26;51.39258;940.9523;;;;
2023/09/02 10:23:06;;;;;;;1.9;1.6;;;;;;;28.51;48.72168;940.9125;;;;
2023/09/02 10:25:34;;;;;;;3.2;1.7;;;;;;;28.65;47.86816;940.9127;;;;
2023/09/02 10:27:56;;;;;;;1.6;1.5;;;;;;;28.91;49.26563;940.8847;;;;
2023/09/02 10:30:23;;;;;;;2.4;1.7;;;;;;;28.27;52.27344;940.8656;;;;
2023/09/02 10:32:48;;;;;;;1.8;1.6;;;;;;;28.12;52.55371;940.8453;;;;
2023/09/02 10:35:13;;;;;;;2.2;1.7;;;;;;;27.83;53.21973;940.8328;;;;
2023/09/02 10:37:39;;;;;;;1.7;1.5;;;;;;;28.39;52.18066;940.8411;;;;
2023/09/02 10:40:04;;;;;;;2.4;1.6;;;;;;;29.08;47.66504;940.8719;;;;
2023/09/02 10:42:29;;;;;;;1.7;1.6;;;;;;;28.92;51.69531;940.8306;;;;
2023/09/02 10:44:54;;;;;;;1.9;1.7;;;;;;;29.44;47.85742;940.8666;;;;
2023/09/02 10:47:19;;;;;;;1.8;1.5;;;;;;;29.87;47.62793;940.8464;;;;
2023/09/02 10:49:44;;;;;;;2.8;1.4;;;;;;;30.33;47.7959;940.793;;;;
2023/09/02 10:52:10;;;;;;;1.6;1.5;;;;;;;30.76;45.02148;940.8203;;;;
2023/09/02 10:54:35;;;;;;;2.1;1.3;;;;;;;31.39;42.96484;940.8062;;;;
2023/09/02 10:57:00;;;;;;;2.2;1.7;;;;;;;30.31;45.4541;940.7775;;;;
2023/09/02 10:59:25;;;;;;;1.8;1.7;;;;;;;30.66;43.51758;940.7601;;;;
2023/09/02 11:01:50;;;;;;;2.8;1.7;;;;;;;29.93;48.8877;940.7924;;;;
2023/09/02 11:04:16;;;;;;;3.2;1.6;;;;;;;30.91;46.23242;940.782;;;;
2023/09/02 11:06:41;;;;;;;2.6;1.3;;;;;;;31.99;42.9502;940.7791;;;;
2023/09/02 11:09:06;;;;;;;1.6;1.5;;;;;;;31.33;45.50879;940.7556;;;;
2023/09/02 11:11:31;;;;;;;3.2;1.6;;;;;;;32.27;43.49316;940.7789;;;;
2023/09/02 11:13:57;;;;;;;2.6;1.9;;;;;;;32.76;41.37988;940.7791;;;;
2023/09/02 11:16:22;;;;;;;1.6;1.4;;;;;;;33.13;40.67969;940.7617;;;;
2023/09/02 11:18:47;;;;;;;2.5;1.6;;;;;;;33.56;38.87793;940.7803;;;;
2023/09/02 11:21:13;;;;;;;3.3;1.6;;;;;;;33.94;37.76758;940.7567;;;;
2023/09/02 11:23:38;;;;;;;2.7;1.5;;;;;;;34.61;36.61719;940.6707;;;;
2023/09/02 11:26:03;;;;;;;2.1;1.6;;;;;;;34.02;39.84473;940.7364;;;;
2023/09/02 11:28:31;;;;;;;1.9;1.6;;;;;;;35.05;35.9043;940.741;;;;
2023/09/02 11:30:56;;;;;;;2;1.6;;;;;;;35.22;35.60449;940.8351;;;;
2023/09/02 11:33:23;;;;;;;1.6;1.5;;;;;;;34.48;37.19727;940.8295;;;;
2023/09/02 11:35:48;;;;;;;1.7;1.5;;;;;;;34.01;40.53027;940.7806;;;;
2023/09/02 11:38:15;;;;;;;2.4;1.7;;;;;;;34.1;40.06836;940.7975;;;;
2023/09/02 11:40:41;;;;;;;2.5;1.7;;;;;;;34.31;37.35254;940.7296;;;;
2023/09/02 11:43:06;;;;;;;1.9;1.3;;;;;;;35.39;36.13672;940.8058;;;;
2023/09/02 11:45:31;;;;;;;2.5;1.7;;;;;;;35.68;35.87012;940.8498;;;;
2023/09/02 11:47:57;;;;;;;2.3;1.7;;;;;;;35.8;34.87598;940.8746;;;;
2023/09/02 11:50:22;;;;;;;3;1.4;;;;;;;35.53;36.30469;940.8121;;;;
2023/09/02 11:52:47;;;;;;;2;1.8;;;;;;;37.9;31.4668;940.8854;;;;
2023/09/02 11:55:13;;;;;;;2.3;1.5;;;;;;;36.02;35.07422;940.8425;;;;
2023/09/02 11:57:38;;;;;;;1.8;1.7;;;;;;;35.19;37.05078;940.8245;;;;
2023/09/02 12:00:06;;;;;;;2;1.6;;;;;;;34.9;37.93066;940.6738;;;;
2023/09/02 12:02:38;;;;;;;1.5;1.4;;;;;;;33.64;38.84863;940.6763;;;;
2023/09/02 12:05:03;;;;;;;1.7;1.5;;;;;;;33.78;38.24805;940.6603;;;;
2023/09/02 12:07:28;;;;;;;2.4;1.4;;;;;;;33.57;38.38574;940.5949;;;;
2023/09/02 12:09:54;;;;;;;2;1.6;;;;;;;33.96;37.63672;940.6507;;;;
2023/09/02 12:12:18;;;;;;;1.6;1.5;;;;;;;34.66;36.16309;940.5758;;;;
2023/09/02 12:14:44;;;;;;;1.5;1.3;;;;;;;35.4;35.6416;940.6214;;;;
2023/09/02 12:17:10;;;;;;;1.8;1.6;;;;;;;35.79;32.89355;940.5753;;;;
2023/09/02 12:19:35;;;;;;;4.7;2.3;;;;;;;35.24;33.32422;940.5572;;;;
2023/09/02 12:22:03;;;;;;;2.2;1.6;;;;;;;34.48;36.02832;940.5678;;;;
2023/09/02 12:24:30;;;;;;;2.2;1.5;;;;;;;33.45;38.20801;940.6313;;;;
2023/09/02 12:26:56;;;;;;;1.9;1.4;;;;;;;35.1;36.17383;940.6559;;;;
2023/09/02 12:29:21;;;;;;;2.1;1.4;;;;;;;35.53;33.18848;940.6563;;;;
2023/09/02 12:31:49;;;;;;;2.1;1.5;;;;;;;35.15;34.48828;940.6583;;;;
2023/09/02 12:34:14;;;;;;;2.6;1.8;;;;;;;35.03;35.02344;940.7081;;;;
2023/09/02 12:36:40;;;;;;;1.9;1.4;;;;;;;35.56;34.36328;940.6699;;;;
2023/09/02 12:39:06;;;;;;;1.6;1.5;;;;;;;34.87;34.33496;940.6122;;;;
2023/09/02 12:41:31;;;;;;;1.9;1.5;;;;;;;34.76;34.24219;940.5894;;;;
2023/09/02 12:43:57;;;;;;;2.4;1.5;;;;;;;34.51;34.70508;940.5608;;;;
2023/09/02 12:46:22;;;;;;;1.8;1.5;;;;;;;34.28;36.21777;940.6344;;;;
2023/09/02 12:48:47;;;;;;;2;1.6;;;;;;;34.74;35.33789;940.59;;;;
2023/09/02 12:51:13;;;;;;;2;1.6;;;;;;;34.16;35.25684;940.6014;;;;
2023/09/02 12:53:38;;;;;;;3;1.7;;;;;;;34.06;36.14063;940.5577;;;;
2023/09/02 12:56:05;;;;;;;2;1.6;;;;;;;34.03;36.98047;940.5756;;;;
2023/09/02 12:58:30;;;;;;;2.1;1.6;;;;;;;33.36;38.3916;940.6397;;;;
2023/09/02 13:01:04;;;;;;;3.8;1.7;;;;;;;33.48;37.0918;940.6736;;;;
2023/09/02 13:03:25;;;;;;;1.7;1.6;;;;;;;34.13;35.7959;940.6423;;;;
2023/09/02 13:05:50;;;;;;;1.7;1.6;;;;;;;33.25;38.47949;940.6085;;;;
2023/09/02 13:08:15;;;;;;;1.7;1.6;;;;;;;32.79;40.69727;940.6431;;;;
2023/09/02 13:10:43;;;;;;;1.9;1.6;;;;;;;32.27;41.51367;940.62;;;;
2023/09/02 13:13:08;;;;;;;2.6;1.8;;;;;;;32.91;39.84375;940.5898;;;;
2023/09/02 13:15:35;;;;;;;2.9;1.8;;;;;;;32.65;40.13281;940.6141;;;;
2023/09/02 13:18:00;;;;;;;2.2;2;;;;;;;33.47;37.72852;940.6652;;;;
2023/09/02 13:20:27;;;;;;;2.5;1.7;;;;;;;33.18;39.33887;940.6202;;;;
2023/09/02 13:22:52;;;;;;;2.3;1.6;;;;;;;32.71;39.93457;940.6727;;;;
2023/09/02 13:25:18;;;;;;;1.7;1.6;;;;;;;31.99;40.81641;940.6572;;;;
2023/09/02 13:27:43;;;;;;;1.8;1.7;;;;;;;31.37;42.85547;940.6281;;;;
2023/09/02 13:30:11;;;;;;;1.7;1.6;;;;;;;30.34;44.8252;940.6408;;;;
2023/09/02 13:32:35;;;;;;;2.2;1.9;;;;;;;29.77;47.78516;940.7059;;;;
2023/09/02 13:35:00;;;;;;;2.1;1.7;;;;;;;29.41;46.63867;940.6433;;;;
2023/09/02 13:37:26;;;;;;;1.7;1.6;;;;;;;29.31;48.84375;940.7177;;;;
2023/09/02 13:39:51;;;;;;;2.1;1.8;;;;;;;29.36;48.65918;940.7225;;;;
2023/09/02 13:42:17;;;;;;;2.7;1.8;;;;;;;29.3;49.21191;940.7303;;;;
2023/09/02 13:44:43;;;;;;;1.5;1.4;;;;;;;29.37;48.08887;940.7422;;;;
2023/09/02 13:47:09;;;;;;;2.6;1.6;;;;;;;28.72;49.74414;940.7869;;;;
2023/09/02 13:49:34;;;;;;;1.9;1.7;;;;;;;28.66;49.54785;940.7541;;;;
2023/09/02 13:52:01;;;;;;;2;1.6;;;;;;;28.22;50.18848;940.7495;;;;
2023/09/02 13:54:26;;;;;;;3.1;1.7;;;;;;;28.12;52.03027;940.8086;;;;
2023/09/02 13:56:51;;;;;;;1.7;1.6;;;;;;;28.05;51.48828;940.7853;;;;
2023/09/02 13:59:16;;;;;;;2.3;1.7;;;;;;;28.14;49.90625;940.8383;;;;
2023/09/02 14:01:42;;;;;;;2.4;1.7;;;;;;;28.05;50.79883;940.8541;;;;
2023/09/02 14:04:08;;;;;;;2.3;1.7;;;;;;;27.99;51.13672;940.8505;;;;
2023/09/02 14:06:33;;;;;;;1.6;1.5;;;;;;;27.85;50.78809;940.8668;;;;
2023/09/02 14:08:59;;;;;;;1.9;1.7;;;;;;;27.14;53.36328;941.0186;;;;
2023/09/02 14:11:24;;;;;;;2.2;1.6;;;;;;;27.48;50.9834;940.9594;;;;
2023/09/02 14:13:51;;;;;;;2.2;1.8;;;;;;;27.76;50.17285;940.9663;;;;
2023/09/02 14:16:16;;;;;;;2.9;1.6;;;;;;;28;50.38965;941.003;;;;
2023/09/02 14:18:41;;;;;;;2.3;2;;;;;;;28.13;49.91602;941.0268;;;;